Time;durP1;ratioP1;P1;durP2;ratioP2;P2;SDS_P1;SDS_P2;PMS_P1;PMS_P2;Temp;Humidity;BMP_temperature;BMP_pressure;BME280_temperature;BME280_humidity;BME280_pressure;Samples;Min_cycle;Max_cycle;Signal;HPM_P1;HPM_P2
2023/12/08 00:01:42;;;;;;;28.13;15.07;;;0.90;99.90;;;;;;5047666;28;20033;-77
2023/12/08 00:04:08;;;;;;;28.77;14.93;;;0.90;99.90;;;;;;5047510;28;20056;-77
2023/12/08 00:06:33;;;;;;;29.13;15.30;;;0.90;99.90;;;;;;5048967;28;20412;-77
2023/12/08 00:08:59;;;;;;;26.77;14.50;;;0.90;99.90;;;;;;5074174;28;20044;-77
2023/12/08 00:11:25;;;;;;;25.40;14.90;;;0.90;99.90;;;;;;5053127;28;20045;-77
2023/12/08 00:13:51;;;;;;;28.87;15.00;;;0.90;99.90;;;;;;5053387;28;20043;-77
2023/12/08 00:16:16;;;;;;;28.23;15.07;;;0.90;99.90;;;;;;5048957;28;20447;-77
2023/12/08 00:18:42;;;;;;;26.67;14.57;;;0.90;99.90;;;;;;5032223;28;20076;-77
2023/12/08 00:21:07;;;;;;;26.30;13.37;;;0.90;99.90;;;;;;5052770;28;20056;-77
2023/12/08 00:23:34;;;;;;;26.70;14.93;;;0.90;99.90;;;;;;5051187;28;20037;-77
2023/12/08 00:26:00;;;;;;;28.17;14.17;;;0.90;99.90;;;;;;5047167;28;20055;-77
2023/12/08 00:28:26;;;;;;;25.07;14.07;;;1.00;99.90;;;;;;5047509;28;20045;-77
2023/12/08 00:30:51;;;;;;;27.03;15.77;;;0.90;99.90;;;;;;5052740;28;20049;-77
2023/12/08 00:33:17;;;;;;;27.17;15.33;;;1.00;99.90;;;;;;5049848;28;20073;-77
2023/12/08 00:35:43;;;;;;;27.17;14.63;;;0.90;99.90;;;;;;5053077;28;20072;-77
2023/12/08 00:38:09;;;;;;;27.40;15.33;;;0.90;99.90;;;;;;5051860;28;20041;-77
2023/12/08 00:40:35;;;;;;;28.07;15.60;;;0.90;99.90;;;;;;5052877;28;20094;-77
2023/12/08 00:43:00;;;;;;;26.63;15.07;;;0.90;99.90;;;;;;5047052;28;20040;-77
2023/12/08 00:45:26;;;;;;;28.00;15.13;;;0.90;99.90;;;;;;5052647;28;20048;-77
2023/12/08 00:47:52;;;;;;;26.80;15.47;;;0.90;99.90;;;;;;5052026;28;20065;-77
2023/12/08 00:50:18;;;;;;;28.47;14.93;;;0.90;99.90;;;;;;5049250;28;20400;-77
2023/12/08 00:52:44;;;;;;;25.37;14.73;;;0.80;99.90;;;;;;5048286;28;20033;-77
2023/12/08 00:55:10;;;;;;;25.47;15.30;;;0.80;99.90;;;;;;5079987;28;20045;-77
2023/12/08 00:57:35;;;;;;;26.60;14.93;;;0.90;99.90;;;;;;5046128;28;20037;-77
2023/12/08 01:00:01;;;;;;;27.20;15.63;;;0.90;99.90;;;;;;5050867;28;20067;-77
2023/12/08 01:02:26;;;;;;;26.23;14.47;;;0.80;99.90;;;;;;5049339;28;20501;-77
2023/12/08 01:04:52;;;;;;;25.37;15.23;;;0.90;99.90;;;;;;5052558;28;20040;-77
2023/12/08 01:07:18;;;;;;;25.03;14.63;;;0.90;99.90;;;;;;5052673;28;20060;-77
2023/12/08 01:09:43;;;;;;;26.20;15.23;;;0.90;99.90;;;;;;5047389;28;20087;-77
2023/12/08 01:12:09;;;;;;;25.90;14.67;;;0.90;99.90;;;;;;5050657;28;20044;-77
2023/12/08 01:14:34;;;;;;;27.03;14.73;;;0.90;99.90;;;;;;5051455;28;20686;-77
2023/12/08 01:17:00;;;;;;;26.17;14.80;;;0.90;99.90;;;;;;5047447;28;20041;-77
2023/12/08 01:19:25;;;;;;;27.00;15.20;;;0.80;99.90;;;;;;5029347;28;20028;-77
2023/12/08 01:21:51;;;;;;;26.73;14.30;;;0.80;99.90;;;;;;5050051;28;20641;-77
2023/12/08 01:24:17;;;;;;;27.03;15.23;;;0.90;99.90;;;;;;5049722;28;20064;-77
2023/12/08 01:26:43;;;;;;;25.80;14.67;;;0.90;99.90;;;;;;5047212;28;20037;-77
2023/12/08 01:29:09;;;;;;;26.80;15.07;;;0.90;99.90;;;;;;5048859;28;20048;-77
2023/12/08 01:31:35;;;;;;;28.37;15.37;;;0.90;99.90;;;;;;5047043;28;20037;-77
2023/12/08 01:34:01;;;;;;;27.07;15.00;;;0.90;99.90;;;;;;5042567;28;20167;-77
2023/12/08 01:36:26;;;;;;;25.83;14.97;;;0.80;99.90;;;;;;5051755;28;20412;-77
2023/12/08 01:38:52;;;;;;;26.87;15.57;;;0.90;99.90;;;;;;5049855;28;20033;-77
2023/12/08 01:41:18;;;;;;;25.07;15.10;;;0.80;99.90;;;;;;5047382;28;20625;-77
2023/12/08 01:43:44;;;;;;;29.60;15.67;;;1.30;99.90;;;;;;5029239;28;20412;-77
2023/12/08 01:46:14;;;;;;;25.30;15.17;;;0.80;99.90;;;;;;5051070;28;20036;-77
2023/12/08 01:48:40;;;;;;;26.97;14.57;;;0.80;99.90;;;;;;5051806;28;20040;-77
2023/12/08 01:51:06;;;;;;;28.73;15.73;;;0.80;99.90;;;;;;5051853;28;20131;-77
2023/12/08 01:53:32;;;;;;;28.33;15.43;;;1.20;99.90;;;;;;5047811;28;20124;-77
2023/12/08 01:55:59;;;;;;;30.93;15.70;;;0.80;99.90;;;;;;5045778;28;20267;-77
2023/12/08 01:58:26;;;;;;;23.87;14.33;;;0.80;99.90;;;;;;5049309;28;20099;-76
2023/12/08 02:00:52;;;;;;;25.37;14.70;;;0.80;99.90;;;;;;5049680;28;20043;-77
2023/12/08 02:03:19;;;;;;;32.17;15.17;;;0.80;99.90;;;;;;5050600;28;20041;-77
2023/12/08 02:05:48;;;;;;;26.90;15.03;;;0.80;99.90;;;;;;5045404;28;20112;-77
2023/12/08 02:08:14;;;;;;;31.20;15.70;;;0.80;99.90;;;;;;5051504;28;20116;-77
2023/12/08 02:10:40;;;;;;;26.47;14.57;;;0.80;99.90;;;;;;5033029;28;20029;-77
2023/12/08 02:13:06;;;;;;;27.77;15.80;;;0.80;99.90;;;;;;5050056;28;20361;-77
2023/12/08 02:15:31;;;;;;;25.00;15.00;;;0.70;99.90;;;;;;5049897;28;20119;-77
2023/12/08 02:17:58;;;;;;;28.50;16.20;;;0.70;99.90;;;;;;5051130;28;20037;-77
2023/12/08 02:20:24;;;;;;;26.77;14.53;;;0.70;99.90;;;;;;5049601;28;20051;-77
2023/12/08 02:22:49;;;;;;;28.20;15.77;;;0.80;99.90;;;;;;5062431;28;20033;-77
2023/12/08 02:25:15;;;;;;;26.67;15.00;;;0.80;99.90;;;;;;5047847;28;20087;-76
2023/12/08 02:27:41;;;;;;;26.43;14.83;;;0.80;99.90;;;;;;5050005;28;20125;-77
2023/12/08 02:30:07;;;;;;;26.40;13.97;;;0.80;99.90;;;;;;5030775;28;20075;-77
2023/12/08 02:32:45;;;;;;;30.43;16.07;;;0.80;99.90;;;;;;5050001;28;20071;-77
2023/12/08 02:35:13;;;;;;;28.63;15.70;;;0.80;99.90;;;;;;5048299;28;20060;-77
2023/12/08 02:37:44;;;;;;;26.97;14.70;;;0.80;99.90;;;;;;5046638;28;20065;-76
2023/12/08 02:40:09;;;;;;;26.33;15.10;;;0.80;99.90;;;;;;5046715;28;20528;-77
2023/12/08 02:42:35;;;;;;;29.03;15.00;;;0.70;99.90;;;;;;5042708;28;20121;-77
2023/12/08 02:45:03;;;;;;;29.70;15.50;;;0.80;99.90;;;;;;5045387;28;20045;-77
2023/12/08 02:47:29;;;;;;;28.00;14.37;;;0.70;99.90;;;;;;5050407;28;20041;-77
2023/12/08 02:49:55;;;;;;;26.57;15.40;;;0.80;99.90;;;;;;5048760;28;20446;-77
2023/12/08 02:52:20;;;;;;;26.83;14.30;;;0.70;99.90;;;;;;5043667;28;20037;-77
2023/12/08 02:54:46;;;;;;;26.50;14.57;;;0.70;99.90;;;;;;5051550;28;20041;-77
2023/12/08 02:57:11;;;;;;;25.70;14.30;;;0.70;99.90;;;;;;5065123;28;20115;-77
2023/12/08 02:59:37;;;;;;;26.03;14.53;;;0.80;99.90;;;;;;5046789;28;20029;-77
2023/12/08 03:02:03;;;;;;;26.30;15.13;;;0.80;99.90;;;;;;5047379;28;20037;-77
2023/12/08 03:04:29;;;;;;;27.33;15.87;;;0.80;99.90;;;;;;5048805;28;20037;-78
2023/12/08 03:06:54;;;;;;;26.17;14.13;;;0.80;99.90;;;;;;5044612;28;20045;-78
2023/12/08 03:09:20;;;;;;;28.60;14.90;;;0.80;99.90;;;;;;5050057;28;20488;-77
2023/12/08 03:11:45;;;;;;;28.97;14.50;;;0.80;99.90;;;;;;5049083;28;20041;-77
2023/12/08 03:14:11;;;;;;;23.80;13.83;;;0.80;99.90;;;;;;5046328;28;20037;-77
2023/12/08 03:16:37;;;;;;;26.47;14.57;;;0.80;99.90;;;;;;5049168;28;20459;-77
2023/12/08 03:19:02;;;;;;;25.27;14.37;;;0.80;99.90;;;;;;5049910;28;20040;-77
2023/12/08 03:21:28;;;;;;;26.30;14.47;;;0.90;99.90;;;;;;5049056;28;20025;-77
2023/12/08 03:23:53;;;;;;;24.20;13.83;;;0.80;99.90;;;;;;5043586;28;20049;-77
2023/12/08 03:26:19;;;;;;;23.67;13.57;;;0.80;99.90;;;;;;5049887;28;20036;-77
2023/12/08 03:28:45;;;;;;;26.60;14.60;;;0.80;99.90;;;;;;5046154;28;20038;-77
2023/12/08 03:31:27;;;;;;;24.53;14.23;;;0.80;99.90;;;;;;5049169;28;20032;-77
2023/12/08 03:33:53;;;;;;;24.23;14.53;;;0.80;99.90;;;;;;5048227;28;20051;-77
2023/12/08 03:36:19;;;;;;;22.83;13.50;;;1.50;99.90;;;;;;5049321;28;20492;-77
2023/12/08 03:38:44;;;;;;;26.80;14.47;;;0.80;99.90;;;;;;5032163;28;20488;-77
2023/12/08 03:41:13;;;;;;;25.20;14.00;;;0.90;99.90;;;;;;5048808;28;20492;-77
2023/12/08 03:43:39;;;;;;;23.93;13.93;;;0.90;99.90;;;;;;5047606;28;20629;-77
2023/12/08 03:46:06;;;;;;;23.20;13.73;;;0.90;99.90;;;;;;5046600;28;20032;-77
2023/12/08 03:48:32;;;;;;;25.20;14.57;;;0.80;99.90;;;;;;5049018;28;20036;-77
2023/12/08 03:50:57;;;;;;;26.07;15.17;;;0.80;99.90;;;;;;5048241;28;20040;-77
2023/12/08 03:53:24;;;;;;;26.23;14.43;;;0.90;99.90;;;;;;5048426;28;20342;-77
2023/12/08 03:55:50;;;;;;;26.17;14.00;;;0.90;99.90;;;;;;5046487;28;20044;-77
2023/12/08 03:58:15;;;;;;;23.53;13.67;;;0.90;99.90;;;;;;5048904;28;20025;-77
2023/12/08 04:00:41;;;;;;;23.97;13.73;;;0.90;99.90;;;;;;5048672;28;20033;-76
2023/12/08 04:03:06;;;;;;;26.27;14.07;;;0.90;99.90;;;;;;5048460;28;20158;-77
2023/12/08 04:05:32;;;;;;;24.80;13.70;;;0.90;99.90;;;;;;5024734;28;20531;-77
2023/12/08 04:07:58;;;;;;;26.93;14.27;;;0.90;99.90;;;;;;5046528;28;20103;-77
2023/12/08 04:10:23;;;;;;;23.40;13.17;;;0.80;99.90;;;;;;5045448;28;20433;-77
2023/12/08 04:12:49;;;;;;;23.13;13.60;;;0.80;99.90;;;;;;5045132;28;20090;-77
2023/12/08 04:15:15;;;;;;;24.43;14.23;;;0.80;99.90;;;;;;5047823;28;20037;-77
2023/12/08 04:17:40;;;;;;;23.63;13.67;;;0.80;99.90;;;;;;5048273;28;20032;-77
2023/12/08 04:20:06;;;;;;;22.90;14.00;;;0.80;99.90;;;;;;5048755;28;20083;-77
2023/12/08 04:22:32;;;;;;;22.07;12.97;;;0.80;99.90;;;;;;5046587;28;20033;-77
2023/12/08 04:24:57;;;;;;;23.33;14.20;;;0.80;99.90;;;;;;5049306;28;20512;-77
2023/12/08 04:27:23;;;;;;;25.13;13.63;;;0.70;99.90;;;;;;5045477;28;20066;-78
2023/12/08 04:29:49;;;;;;;25.90;14.17;;;0.70;99.90;;;;;;5043861;28;20033;-78
2023/12/08 04:32:14;;;;;;;25.57;14.53;;;0.60;99.90;;;;;;5047932;28;20037;-78
2023/12/08 04:34:40;;;;;;;24.70;13.47;;;0.60;99.90;;;;;;5047916;28;20500;-79
2023/12/08 04:37:05;;;;;;;26.13;14.03;;;0.60;99.90;;;;;;5047365;28;20069;-79
2023/12/08 04:39:31;;;;;;;25.50;13.67;;;0.60;99.90;;;;;;5047898;28;20037;-78
2023/12/08 04:41:57;;;;;;;28.97;14.80;;;0.60;99.90;;;;;;5029457;28;20075;-79
2023/12/08 04:44:22;;;;;;;26.97;13.70;;;0.50;99.90;;;;;;5049807;28;20510;-79
2023/12/08 04:46:48;;;;;;;27.33;14.33;;;0.50;99.90;;;;;;5026851;28;20037;-80
2023/12/08 04:49:13;;;;;;;26.43;14.80;;;0.50;99.90;;;;;;5048561;28;20043;-80
2023/12/08 04:51:42;;;;;;;27.07;14.13;;;0.50;99.90;;;;;;5079399;28;21452;-81
2023/12/08 04:54:08;;;;;;;25.67;14.60;;;0.50;99.90;;;;;;5040178;28;20128;-80
2023/12/08 04:56:34;;;;;;;29.23;14.33;;;0.40;99.90;;;;;;5031311;28;20064;-80
2023/12/08 04:59:00;;;;;;;26.87;14.43;;;0.40;99.90;;;;;;5050866;28;20680;-80
2023/12/08 05:01:25;;;;;;;26.10;14.30;;;0.40;99.90;;;;;;5050053;28;20029;-80
2023/12/08 05:03:51;;;;;;;30.23;14.77;;;0.40;99.90;;;;;;5026170;28;20033;-81
2023/12/08 05:06:17;;;;;;;24.47;14.57;;;0.40;99.90;;;;;;5053008;28;20523;-81
2023/12/08 05:08:43;;;;;;;24.07;13.77;;;0.40;99.90;;;;;;5028506;28;20068;-80
2023/12/08 05:11:09;;;;;;;27.67;14.53;;;0.40;99.90;;;;;;5047112;28;20033;-80
2023/12/08 05:13:35;;;;;;;26.37;14.60;;;0.40;99.90;;;;;;5048364;28;20041;-80
2023/12/08 05:16:00;;;;;;;27.73;15.13;;;0.40;99.90;;;;;;5045178;28;20036;-80
2023/12/08 05:18:26;;;;;;;29.50;15.80;;;0.40;99.90;;;;;;5032291;28;20116;-79
2023/12/08 05:20:52;;;;;;;27.90;15.20;;;0.40;99.90;;;;;;5053383;28;20178;-79
2023/12/08 05:23:18;;;;;;;27.67;15.13;;;0.40;99.90;;;;;;5053356;28;20102;-79
2023/12/08 05:25:44;;;;;;;26.30;14.87;;;0.40;99.90;;;;;;5048753;28;20112;-80
2023/12/08 05:28:10;;;;;;;27.73;14.33;;;0.40;99.90;;;;;;5052783;28;20052;-79
2023/12/08 05:30:35;;;;;;;27.63;13.60;;;0.40;99.90;;;;;;5044366;28;20041;-77
2023/12/08 05:33:01;;;;;;;29.30;15.20;;;0.40;99.90;;;;;;5051316;28;20106;-78
2023/12/08 05:35:27;;;;;;;27.23;14.60;;;0.40;99.90;;;;;;5050812;28;20036;-78
2023/12/08 05:37:52;;;;;;;32.47;16.07;;;0.40;99.90;;;;;;5045101;28;20465;-77
2023/12/08 05:40:21;;;;;;;25.70;14.13;;;0.40;99.90;;;;;;5051465;28;20036;-78
2023/12/08 05:42:46;;;;;;;29.40;15.10;;;0.30;99.90;;;;;;5046077;28;20037;-79
2023/12/08 05:45:12;;;;;;;27.57;15.10;;;0.30;99.90;;;;;;5030709;28;20048;-79
2023/12/08 05:47:37;;;;;;;27.97;15.23;;;0.30;99.90;;;;;;5051756;28;20116;-78
2023/12/08 05:50:04;;;;;;;29.10;15.40;;;0.30;99.90;;;;;;5028761;28;20500;-78
2023/12/08 05:52:30;;;;;;;29.70;15.60;;;0.30;99.90;;;;;;5046750;28;20044;-78
2023/12/08 05:54:55;;;;;;;27.67;14.50;;;0.30;99.90;;;;;;5051350;28;20499;-78
2023/12/08 05:57:22;;;;;;;28.57;15.77;;;0.30;99.90;;;;;;5046858;28;20377;-78
2023/12/08 05:59:47;;;;;;;29.10;15.37;;;0.30;99.90;;;;;;5050837;28;20146;-79
2023/12/08 06:02:13;;;;;;;29.03;14.57;;;0.30;99.90;;;;;;5035208;28;20124;-78
2023/12/08 06:04:39;;;;;;;29.40;15.63;;;0.30;99.90;;;;;;5049151;28;20041;-78
2023/12/08 06:07:05;;;;;;;32.30;15.70;;;0.30;99.90;;;;;;5047494;28;20048;-78
2023/12/08 06:09:30;;;;;;;26.33;14.43;;;0.30;99.90;;;;;;5051623;28;20045;-78
2023/12/08 06:11:56;;;;;;;31.40;15.40;;;0.30;99.90;;;;;;5050673;28;20101;-78
2023/12/08 06:14:21;;;;;;;29.50;15.17;;;0.30;99.90;;;;;;5051139;28;20120;-78
2023/12/08 06:16:47;;;;;;;31.93;16.00;;;0.30;99.90;;;;;;5048947;28;20039;-78
2023/12/08 06:19:12;;;;;;;30.90;15.23;;;0.30;99.90;;;;;;5046115;28;20025;-78
2023/12/08 06:21:38;;;;;;;30.73;15.43;;;0.30;99.90;;;;;;5045597;28;20041;-78
2023/12/08 06:24:04;;;;;;;30.40;15.53;;;0.30;99.90;;;;;;5051813;28;20110;-79
2023/12/08 06:26:30;;;;;;;29.77;15.13;;;0.30;99.90;;;;;;5051469;28;20041;-79
2023/12/08 06:28:56;;;;;;;29.30;14.53;;;0.30;99.90;;;;;;5050874;28;20047;-80
2023/12/08 06:31:21;;;;;;;33.57;15.50;;;0.30;99.90;;;;;;5051885;28;20038;-79
2023/12/08 06:33:47;;;;;;;30.57;15.47;;;0.30;99.90;;;;;;5051119;28;20050;-79
2023/12/08 06:36:12;;;;;;;31.17;16.10;;;0.30;99.90;;;;;;5048597;28;20060;-80
2023/12/08 06:38:39;;;;;;;31.37;15.67;;;0.30;99.90;;;;;;5043944;28;20029;-80
2023/12/08 06:41:04;;;;;;;30.43;15.33;;;0.30;99.90;;;;;;5047341;28;20033;-80
2023/12/08 06:43:31;;;;;;;30.97;15.77;;;0.30;99.90;;;;;;5077366;28;20390;-79
2023/12/08 06:45:56;;;;;;;35.60;16.77;;;0.30;99.90;;;;;;5078400;28;20093;-80
2023/12/08 06:48:23;;;;;;;33.17;16.30;;;0.30;99.90;;;;;;5041579;28;20097;-80
2023/12/08 06:50:50;;;;;;;31.27;16.53;;;0.30;99.90;;;;;;5043527;28;20037;-80
2023/12/08 06:53:16;;;;;;;31.20;16.13;;;0.30;99.90;;;;;;5042160;28;20045;-80
2023/12/08 06:55:42;;;;;;;29.83;15.40;;;0.30;99.90;;;;;;5026090;28;20039;-81
2023/12/08 06:58:08;;;;;;;30.47;14.90;;;0.30;99.90;;;;;;5039244;28;20091;-81
2023/12/08 07:00:34;;;;;;;31.10;15.60;;;0.30;99.90;;;;;;5031027;28;20029;-80
2023/12/08 07:02:59;;;;;;;30.53;15.40;;;0.30;99.90;;;;;;5044958;28;20039;-82
2023/12/08 07:05:25;;;;;;;30.40;14.83;;;0.30;99.90;;;;;;5046224;28;20041;-81
2023/12/08 07:07:51;;;;;;;33.27;15.40;;;0.30;99.90;;;;;;5042659;28;20034;-81
2023/12/08 07:10:16;;;;;;;28.47;14.63;;;0.30;99.90;;;;;;5049357;28;20048;-81
2023/12/08 07:12:42;;;;;;;32.93;15.90;;;0.30;99.90;;;;;;5043310;28;20037;-82
2023/12/08 07:15:09;;;;;;;32.57;16.10;;;0.30;99.90;;;;;;5047559;28;20049;-82
2023/12/08 07:17:35;;;;;;;30.37;16.07;;;0.30;99.90;;;;;;5037167;28;20073;-82
2023/12/08 07:20:01;;;;;;;32.00;16.47;;;0.30;99.90;;;;;;5042213;28;20061;-82
2023/12/08 07:22:26;;;;;;;34.50;16.93;;;0.30;99.90;;;;;;5032334;28;20099;-81
2023/12/08 07:24:52;;;;;;;28.97;15.13;;;0.30;99.90;;;;;;5041727;28;20041;-83
2023/12/08 07:27:18;;;;;;;30.47;15.93;;;0.30;99.90;;;;;;5050257;28;20029;-82
2023/12/08 07:29:44;;;;;;;31.63;15.97;;;0.30;99.90;;;;;;5047718;28;20040;-82
2023/12/08 07:32:10;;;;;;;32.00;15.40;;;0.30;99.90;;;;;;5045284;28;20036;-82
2023/12/08 07:34:36;;;;;;;33.83;15.70;;;0.30;99.90;;;;;;5047606;28;20247;-82
2023/12/08 07:37:01;;;;;;;36.50;15.97;;;0.30;99.90;;;;;;5048346;28;20068;-82
2023/12/08 07:39:27;;;;;;;34.27;15.43;;;0.30;99.90;;;;;;5033029;28;20053;-82
2023/12/08 07:41:53;;;;;;;33.57;16.00;;;0.30;99.90;;;;;;5050144;28;20045;-81
2023/12/08 07:44:18;;;;;;;33.57;15.87;;;0.30;99.90;;;;;;5050662;28;20047;-82
2023/12/08 07:46:44;;;;;;;33.27;16.27;;;0.30;99.90;;;;;;5049596;28;20040;-81
2023/12/08 07:49:10;;;;;;;32.37;15.93;;;0.30;99.90;;;;;;5051514;28;20415;-81
2023/12/08 07:51:36;;;;;;;33.00;15.67;;;0.30;99.90;;;;;;5048079;28;20032;-81
2023/12/08 07:54:03;;;;;;;33.03;16.03;;;0.30;99.90;;;;;;5067163;28;20041;-81
2023/12/08 07:56:29;;;;;;;29.47;14.73;;;0.30;99.90;;;;;;5052259;28;20069;-81
2023/12/08 07:58:54;;;;;;;33.07;14.90;;;0.40;99.90;;;;;;5066193;28;20040;-81
2023/12/08 08:01:20;;;;;;;29.97;14.90;;;0.40;99.90;;;;;;5051014;28;20489;-82
2023/12/08 08:03:46;;;;;;;33.17;16.00;;;0.40;99.90;;;;;;5050420;28;20128;-81
2023/12/08 08:06:11;;;;;;;32.70;16.37;;;0.30;99.90;;;;;;5048734;28;20504;-81
2023/12/08 08:08:37;;;;;;;31.00;14.87;;;0.40;99.90;;;;;;5049213;28;20408;-81
2023/12/08 08:11:04;;;;;;;32.30;15.10;;;0.40;99.90;;;;;;5028516;28;20055;-82
2023/12/08 08:13:29;;;;;;;32.63;17.10;;;0.40;99.90;;;;;;5032613;28;20065;-81
2023/12/08 08:15:55;;;;;;;35.40;16.30;;;0.40;99.90;;;;;;5049106;28;20088;-81
2023/12/08 08:18:21;;;;;;;32.60;15.37;;;0.40;99.90;;;;;;5047240;28;20507;-81
2023/12/08 08:20:47;;;;;;;29.93;15.47;;;0.40;99.90;;;;;;5048330;28;20048;-81
2023/12/08 08:23:13;;;;;;;35.60;16.57;;;0.40;99.90;;;;;;5046425;28;20115;-81
2023/12/08 08:25:38;;;;;;;29.83;15.60;;;0.40;99.90;;;;;;5048585;28;20543;-80
2023/12/08 08:28:04;;;;;;;32.37;15.83;;;0.40;99.90;;;;;;5050307;28;20136;-80
2023/12/08 08:30:30;;;;;;;32.57;15.90;;;0.50;99.90;;;;;;5049634;28;20117;-80
2023/12/08 08:32:55;;;;;;;31.53;15.10;;;0.50;99.90;;;;;;5052135;28;20041;-81
2023/12/08 08:35:21;;;;;;;34.27;16.80;;;0.50;99.90;;;;;;5030520;28;20030;-81
2023/12/08 08:37:46;;;;;;;31.47;15.73;;;0.50;99.90;;;;;;5052799;28;20032;-81
2023/12/08 08:40:12;;;;;;;33.87;16.33;;;0.40;99.90;;;;;;5053167;28;20028;-80
2023/12/08 08:42:38;;;;;;;33.73;15.80;;;0.50;99.90;;;;;;5048978;28;20025;-80
2023/12/08 08:45:04;;;;;;;35.27;15.80;;;0.50;99.90;;;;;;5051705;28;20127;-80
2023/12/08 08:47:30;;;;;;;32.67;15.17;;;0.50;99.90;;;;;;5052482;28;20059;-80
2023/12/08 08:49:56;;;;;;;32.90;16.67;;;0.50;99.90;;;;;;5048056;28;20037;-80
2023/12/08 08:52:22;;;;;;;35.97;17.03;;;0.50;99.90;;;;;;5048880;28;20127;-80
2023/12/08 08:54:48;;;;;;;34.43;16.30;;;0.50;99.90;;;;;;5030270;28;20112;-80
2023/12/08 08:57:13;;;;;;;33.23;15.83;;;0.50;99.90;;;;;;5051667;28;20120;-80
2023/12/08 08:59:39;;;;;;;35.60;16.10;;;0.50;99.90;;;;;;5044739;28;20037;-80
2023/12/08 09:02:05;;;;;;;33.93;16.47;;;0.50;99.90;;;;;;5052184;28;20048;-80
2023/12/08 09:04:30;;;;;;;35.93;17.07;;;0.50;99.90;;;;;;5052856;28;20070;-80
2023/12/08 09:06:56;;;;;;;36.73;16.43;;;0.50;99.90;;;;;;5042316;28;20041;-80
2023/12/08 09:09:22;;;;;;;39.20;17.10;;;0.60;99.90;;;;;;5046455;28;20040;-80
2023/12/08 09:11:48;;;;;;;30.30;15.23;;;0.60;99.90;;;;;;5036563;28;20524;-85
2023/12/08 09:14:14;;;;;;;36.60;17.90;;;0.60;99.90;;;;;;5037153;28;20033;-80
2023/12/08 09:16:40;;;;;;;36.57;17.77;;;0.50;99.90;;;;;;5053888;28;20029;-80
2023/12/08 09:19:06;;;;;;;33.33;16.17;;;0.60;99.90;;;;;;5053413;28;20041;-80
2023/12/08 09:21:31;;;;;;;35.30;16.37;;;0.60;99.90;;;;;;5053116;28;20040;-80
2023/12/08 09:23:57;;;;;;;33.23;16.83;;;0.60;99.90;;;;;;5053482;28;20557;-80
2023/12/08 09:26:22;;;;;;;34.47;16.90;;;0.60;99.90;;;;;;5033443;28;20037;-80
2023/12/08 09:28:49;;;;;;;33.03;16.13;;;0.60;99.90;;;;;;5053050;28;20076;-80
2023/12/08 09:31:15;;;;;;;33.20;16.00;;;0.60;99.90;;;;;;5051452;28;20047;-80
2023/12/08 09:33:42;;;;;;;35.77;17.27;;;0.70;99.90;;;;;;5052336;28;20048;-80
2023/12/08 09:36:08;;;;;;;32.33;15.60;;;0.70;99.90;;;;;;5052764;28;20523;-80
2023/12/08 09:38:34;;;;;;;34.57;17.10;;;0.70;99.90;;;;;;5052683;28;20047;-80
2023/12/08 09:41:01;;;;;;;35.13;17.33;;;0.70;99.90;;;;;;5052716;28;20045;-80
2023/12/08 09:43:30;;;;;;;33.50;16.23;;;0.70;99.90;;;;;;5052321;28;20640;-80
2023/12/08 09:45:56;;;;;;;34.67;16.80;;;0.70;99.90;;;;;;5052528;28;20044;-81
2023/12/08 09:48:25;;;;;;;35.07;17.17;;;0.80;99.90;;;;;;5052349;28;20040;-80
2023/12/08 09:50:53;;;;;;;32.20;15.83;;;0.70;99.90;;;;;;5052201;28;20037;-80
2023/12/08 09:53:19;;;;;;;31.40;16.50;;;0.70;99.90;;;;;;5050945;28;20037;-80
2023/12/08 09:55:47;;;;;;;34.07;16.33;;;0.70;99.90;;;;;;5085931;28;20107;-80
2023/12/08 09:58:16;;;;;;;36.27;17.43;;;0.70;99.90;;;;;;5044773;28;20044;-80
2023/12/08 10:00:42;;;;;;;30.90;15.87;;;0.80;99.90;;;;;;5052467;28;20033;-80
2023/12/08 10:03:08;;;;;;;31.97;16.27;;;0.80;99.90;;;;;;5036151;28;20037;-81
2023/12/08 10:05:33;;;;;;;35.83;17.63;;;0.80;99.90;;;;;;5052854;28;20032;-80
2023/12/08 10:08:00;;;;;;;29.57;15.27;;;0.80;99.90;;;;;;5052789;28;20049;-81
2023/12/08 10:10:26;;;;;;;34.57;16.63;;;0.80;99.90;;;;;;5053178;28;20096;-80
2023/12/08 10:12:52;;;;;;;38.40;16.93;;;0.80;99.90;;;;;;5052896;28;20057;-80
2023/12/08 10:15:18;;;;;;;36.00;17.30;;;0.80;99.90;;;;;;5052686;28;20032;-81
2023/12/08 10:17:51;;;;;;;36.83;16.97;;;0.80;99.90;;;;;;5042223;28;20048;-81
2023/12/08 10:20:18;;;;;;;34.25;16.98;;;0.80;99.90;;;;;;5051636;28;20549;-80
2023/12/08 10:22:45;;;;;;;35.27;17.43;;;0.80;99.90;;;;;;5051622;28;20071;-81
2023/12/08 10:25:11;;;;;;;37.63;17.20;;;0.80;99.90;;;;;;5048636;28;20041;-81
2023/12/08 10:27:36;;;;;;;33.57;16.93;;;0.80;99.90;;;;;;5052193;28;20052;-81
2023/12/08 10:30:03;;;;;;;33.97;17.50;;;0.90;99.90;;;;;;5051607;28;20400;-80
2023/12/08 10:32:29;;;;;;;36.80;17.90;;;0.90;99.90;;;;;;5053164;28;20403;-81
2023/12/08 10:34:56;;;;;;;36.63;17.93;;;0.90;99.90;;;;;;5053911;28;20037;-81
2023/12/08 10:37:22;;;;;;;34.93;16.93;;;0.90;99.90;;;;;;5050487;28;20551;-81
2023/12/08 10:39:48;;;;;;;34.63;16.90;;;0.90;99.90;;;;;;5053295;28;20029;-81
2023/12/08 10:42:15;;;;;;;38.27;17.87;;;0.90;99.90;;;;;;5051970;28;20226;-81
2023/12/08 10:44:45;;;;;;;35.20;17.13;;;1.00;99.90;;;;;;5048413;28;20041;-80
2023/12/08 10:47:10;;;;;;;34.60;17.13;;;1.00;99.90;;;;;;5044818;28;20078;-81
2023/12/08 10:49:38;;;;;;;39.17;18.57;;;1.00;99.90;;;;;;5052421;28;20079;-80
2023/12/08 10:52:05;;;;;;;33.97;17.13;;;1.00;99.90;;;;;;5051281;28;20047;-80
2023/12/08 10:54:32;;;;;;;37.47;17.20;;;1.00;99.90;;;;;;5049747;28;20041;-81
2023/12/08 10:56:58;;;;;;;39.40;17.90;;;1.00;99.90;;;;;;5083836;28;20029;-80
2023/12/08 10:59:25;;;;;;;38.40;16.73;;;1.00;99.90;;;;;;5083782;28;20044;-80
2023/12/08 11:01:54;;;;;;;37.73;17.67;;;1.00;99.90;;;;;;5081826;28;20040;-79
2023/12/08 11:04:21;;;;;;;40.97;17.33;;;1.10;99.90;;;;;;5050410;28;20041;-80
2023/12/08 11:07:01;;;;;;;38.70;18.37;;;1.10;99.90;;;;;;5078543;28;20558;-80
2023/12/08 11:09:35;;;;;;;37.20;17.60;;;1.10;99.90;;;;;;5078180;28;20033;-79
2023/12/08 11:12:04;;;;;;;38.47;18.13;;;1.10;99.90;;;;;;5050635;28;20052;-79
2023/12/08 11:14:44;;;;;;;39.27;18.50;;;1.10;99.90;;;;;;5049195;28;20068;-79
2023/12/08 11:17:21;;;;;;;38.23;17.17;;;1.10;99.90;;;;;;5050270;28;20036;-79
2023/12/08 11:19:47;;;;;;;38.10;17.33;;;1.10;99.90;;;;;;5049442;28;20040;-79
2023/12/08 11:22:12;;;;;;;47.03;20.40;;;1.10;99.90;;;;;;5050402;28;20055;-79
2023/12/08 11:24:40;;;;;;;37.90;17.93;;;1.10;99.90;;;;;;5050856;28;20037;-79
2023/12/08 11:27:14;;;;;;;39.57;18.20;;;1.20;99.90;;;;;;5050388;28;20135;-79
2023/12/08 11:29:49;;;;;;;42.67;17.85;;;1.10;99.90;;;;;;5047795;28;20123;-84
2023/12/08 11:32:24;;;;;;;38.17;18.33;;;1.10;99.90;;;;;;5049643;28;20103;-79
2023/12/08 11:35:04;;;;;;;44.07;18.50;;;1.10;99.90;;;;;;5045646;28;20120;-80
2023/12/08 11:37:30;;;;;;;39.17;18.10;;;1.10;99.90;;;;;;5043285;28;20037;-80
2023/12/08 11:40:06;;;;;;;46.83;19.13;;;1.20;99.90;;;;;;5075182;28;20037;-79
2023/12/08 11:42:33;;;;;;;42.27;19.07;;;1.20;99.90;;;;;;5042619;28;20044;-79
2023/12/08 11:44:58;;;;;;;40.27;18.03;;;1.20;99.90;;;;;;5075973;28;20045;-79
2023/12/08 11:47:28;;;;;;;44.10;19.77;;;1.20;99.90;;;;;;5040243;28;20592;-79
2023/12/08 11:49:55;;;;;;;41.50;19.70;;;1.20;99.90;;;;;;5032488;28;20527;-79
2023/12/08 11:52:25;;;;;;;50.27;20.10;;;1.30;99.90;;;;;;5074662;28;20151;-79
2023/12/08 11:55:15;;;;;;;46.83;19.60;;;1.30;99.90;;;;;;5060770;28;20136;-80
2023/12/08 11:58:03;;;;;;;48.90;20.10;;;1.30;99.90;;;;;;5066432;28;20488;-80
2023/12/08 12:00:32;;;;;;;49.17;20.33;;;1.30;99.90;;;;;;5042858;28;20041;-80
2023/12/08 12:02:58;;;;;;;50.83;20.30;;;1.30;99.90;;;;;;5045184;28;20045;-79
2023/12/08 12:05:26;;;;;;;44.07;19.80;;;1.30;99.90;;;;;;5031308;28;20065;-79
2023/12/08 12:07:53;;;;;;;48.53;20.33;;;1.30;99.90;;;;;;5044337;28;20063;-80
2023/12/08 12:10:26;;;;;;;48.37;19.23;;;1.40;99.90;;;;;;5042466;28;20044;-80
2023/12/08 12:13:00;;;;;;;50.63;20.02;;;1.30;99.90;;;;;;5047510;28;20523;-80
2023/12/08 12:15:25;;;;;;;53.67;20.57;;;1.30;99.90;;;;;;5053886;28;20044;-80
2023/12/08 12:17:55;;;;;;;48.53;19.30;;;1.40;99.90;;;;;;5087898;28;20519;-80
2023/12/08 12:20:20;;;;;;;44.53;19.27;;;1.90;99.90;;;;;;5053911;28;20037;-81
2023/12/08 12:22:46;;;;;;;48.77;20.10;;;1.40;99.90;;;;;;5053878;28;20363;-80
2023/12/08 12:25:12;;;;;;;43.50;18.97;;;1.40;99.90;;;;;;5054346;28;20114;-81
2023/12/08 12:27:42;;;;;;;47.03;19.07;;;1.40;99.90;;;;;;5070820;28;20036;-80
2023/12/08 12:30:09;;;;;;;46.93;19.07;;;1.40;99.90;;;;;;5037595;28;20037;-81
2023/12/08 12:32:36;;;;;;;48.13;20.10;;;1.40;99.90;;;;;;5053704;28;20048;-80